Portada
METAR-TAF:

METAR-TAF

Aeropuertos :

Base Aérea de Alcantarilla

Murcia, España

latitud: 37-57N, longitud: 001-14W, altitud: 75 m

Observación

El informe se hizo hace 8 horas y 9 minutos, a las 18:00 UTC
Viento 9 kt del oeste-suroeste
Temperatura 16°C
Humedad 77%
Presión 1026 hPa
Visibilidad 10 km o más
sin nubes por debajo de 1500 m y sin presencia de cumulonimbus.

METAR: LERI 091800Z 24009KT CAVOK 16/12 Q1026 NOSIG

Hora: 03:09 (02:09 UTC)

Pronóstico

El informe se hizo hace 12 horas y 9 minutos, a las 14:00 UTC
Pronóstico válido del 09 a las 15 UTC al 09 a las 24 UTC
Viento 4 kt del oeste-suroeste
Visibilidad 10 km o más
sin nubes por debajo de 1500 m y sin presencia de cumulonimbus.

TAF: LERI 091400Z 0915/0924 24004KT CAVOK

Observaciones y pronósticos meteorológicos de más de 4000 aeropuertos (mensajes METAR y TAF).

Los puntos amarillos y rojos representan las estaciones disponibles.

Ponga el ratón en el punto deseado para ver el nombre de la estación.

Haga clic para ver las observaciones y los pronósticos meteorológicos.

Para cambiar el mapa : haga clic en los botones verdes con una cruz de color negro para hacer un zoom, en el botón verde con un guión para alejar o en las flechas verdes para mapas adyacentes.


METAR-TAF: